Terminal Aerodrome Forecast
Issued by NWS Mobile, AL

Home | Current Version | Previous Version | Text Only | Print | Product List | Glossary On
Versions: 1 2 3 4 5 6 7 8 9 10 11 12 13 14 15 16
000
FTUS44 KMOB 282339
TAFMOB
TAF
KMOB 282339Z 2900/2924 00000KT P6SM FEW070 SCT110 OVC250
     FM290300 06007KT P6SM FEW025 BKN250
     FM290900 06005KT 4SM BR BKN250
     FM291300 08009KT P6SM FEW040 SCT250=

USA.gov is the U.S. government's official web portal to all federal, state and local government web resources and services.